Time;durP1;ratioP1;P1;durP2;ratioP2;P2;SDS_P1;SDS_P2;PMS_P1;PMS_P2;Temp;Humidity;BMP_temperature;BMP_pressure;BME280_temperature;BME280_humidity;BME280_pressure;Samples;Min_cycle;Max_cycle;Signal;HPM_P1;HPM_P2
2022/01/16 00:01:35;;;;;;;40.60;16.67;;;;;;;1.99;57.80;101580.22;5408830;32;34429;-67
2022/01/16 00:04:38;;;;;;;40.80;17.67;;;;;;;2.36;56.93;101575.56;5395223;32;34000;-67
2022/01/16 00:07:40;;;;;;;35.60;16.93;;;;;;;2.17;56.95;101574.44;5404617;32;34505;-68
2022/01/16 00:10:42;;;;;;;41.07;19.10;;;;;;;2.26;56.46;101571.12;5417505;32;35313;-68
2022/01/16 00:13:44;;;;;;;42.73;22.00;;;;;;;1.39;59.09;101557.66;5411238;32;34499;-67
2022/01/16 00:16:49;;;;;;;43.07;19.67;;;;;;;1.29;59.93;101567.00;5416803;32;43897;-67
2022/01/16 00:19:51;;;;;;;46.93;21.23;;;;;;;1.51;58.36;101538.87;5411842;32;36108;-67
2022/01/16 00:22:53;;;;;;;44.93;21.27;;;;;;;1.70;57.85;101579.78;5414564;32;35082;-68
2022/01/16 00:25:56;;;;;;;45.10;20.73;;;;;;;1.24;59.57;101596.25;5399018;32;35261;-67
2022/01/16 00:28:58;;;;;;;43.53;21.93;;;;;;;1.41;59.18;101593.97;5397197;32;34886;-67
2022/01/16 00:32:01;;;;;;;44.73;21.20;;;;;;;1.84;58.21;101624.06;5402921;32;35159;-67
2022/01/16 00:35:04;;;;;;;43.97;19.23;;;;;;;0.68;61.25;101570.16;5411559;32;34416;-68
2022/01/16 00:38:07;;;;;;;36.30;18.60;;;;;;;1.29;59.69;101574.78;5416053;32;34139;-68
2022/01/16 00:41:13;;;;;;;37.00;17.03;;;;;;;0.83;60.76;101598.91;5394843;32;33936;-68
2022/01/16 00:44:15;;;;;;;34.90;16.37;;;;;;;0.73;61.25;101581.47;5415056;32;35322;-67
2022/01/16 00:47:17;;;;;;;38.30;16.83;;;;;;;0.76;61.39;101579.81;5412272;32;46821;-67
2022/01/16 00:50:20;;;;;;;35.10;16.47;;;;;;;0.74;61.28;101552.16;5397790;32;34055;-67
2022/01/16 00:53:22;;;;;;;36.53;15.97;;;;;;;0.88;60.92;101570.53;5408718;32;34280;-67
2022/01/16 00:56:24;;;;;;;32.37;14.77;;;;;;;1.31;59.46;101556.66;5369512;32;34117;-67
2022/01/16 00:59:26;;;;;;;37.10;14.20;;;;;;;1.34;59.41;101580.03;5407930;32;34987;-68
2022/01/16 01:02:28;;;;;;;26.37;12.80;;;;;;;0.66;61.13;101561.50;5377046;32;35447;-67
2022/01/16 01:05:30;;;;;;;25.90;12.77;;;;;;;0.15;63.16;101563.03;5410893;32;34156;-67
2022/01/16 01:08:33;;;;;;;34.40;13.07;;;;;;;0.47;61.88;101563.72;5404681;32;34678;-67
2022/01/16 01:11:37;;;;;;;25.83;12.67;;;;;;;0.68;61.27;101565.84;5404742;32;34742;-67
2022/01/16 01:14:42;;;;;;;31.33;13.70;;;;;;;0.97;59.41;101584.56;5390315;32;35066;-67
2022/01/16 01:17:47;;;;;;;27.50;12.43;;;;;;;0.50;61.55;101602.56;5409742;32;34916;-67
2022/01/16 01:20:51;;;;;;;27.80;11.57;;;;;;;1.14;58.83;101525.28;5415174;32;44541;-67
2022/01/16 01:23:55;;;;;;;32.28;12.18;;;;;;;0.98;59.30;101467.22;5388189;32;34400;-68
2022/01/16 01:30:04;;;;;;;29.70;12.13;;;;;;;1.37;58.54;101476.47;5398600;32;35200;-67
2022/01/16 01:33:06;;;;;;;29.77;12.00;;;;;;;0.95;59.61;101502.50;5408333;32;34905;-67
2022/01/16 01:36:08;;;;;;;27.20;11.70;;;;;;;1.44;58.32;101540.50;5406762;32;34533;-67
2022/01/16 01:39:10;;;;;;;28.13;12.50;;;;;;;0.82;59.37;101559.22;5405990;32;34610;-67
2022/01/16 01:42:14;;;;;;;24.20;11.17;;;;;;;1.05;59.34;101582.09;5404057;32;34905;-67
2022/01/16 01:52:34;;;;;;;28.97;13.00;;;;;;;0.42;61.73;101592.91;5411063;32;34281;-67
2022/01/16 01:55:36;;;;;;;30.97;12.93;;;;;;;0.82;60.69;101532.47;5392672;32;33935;-67
2022/01/16 01:58:39;;;;;;;32.20;13.30;;;;;;;0.68;60.49;101539.97;5401341;32;35442;-67
2022/01/16 02:01:41;;;;;;;29.97;13.03;;;;;;;0.42;61.62;101541.16;5396110;32;34756;-67
2022/01/16 02:04:43;;;;;;;37.53;13.23;;;;;;;0.75;60.49;101531.47;5410441;32;34538;-67
2022/01/16 02:07:47;;;;;;;28.33;12.80;;;;;;;0.48;61.49;101554.22;5414974;32;44343;-67
2022/01/16 02:10:49;;;;;;;34.07;13.70;;;;;;;0.25;62.57;101551.16;5411639;32;35758;-68
2022/01/16 02:14:02;;;;;;;31.87;14.33;;;;;;;0.83;60.52;101557.50;5414862;32;34769;-68
2022/01/16 02:36:50;;;;;;;28.33;13.20;;;;;;;-0.42;64.35;101588.38;5404788;32;34137;-68
2022/01/16 02:39:53;;;;;;;28.80;13.63;;;;;;;-0.20;63.74;101582.87;5414811;32;45490;-68
2022/01/16 02:42:55;;;;;;;31.75;14.70;;;;;;;-0.59;65.19;101593.09;5408804;32;34316;-66
2022/01/16 02:46:35;;;;;;;28.40;12.60;;;;;;;-0.24;63.66;101583.66;5394578;32;34224;-67
2022/01/16 02:49:25;;;;;;;30.57;13.43;;;;;;;-0.38;63.61;101585.91;5408694;32;45175;-69
2022/01/16 02:52:27;;;;;;;36.57;12.83;;;;;;;-0.38;63.60;101587.62;5407780;32;34553;-67
2022/01/16 02:55:29;;;;;;;29.00;12.53;;;;;;;-0.27;63.45;101578.41;5398026;32;34596;-69
2022/01/16 02:58:32;;;;;;;31.43;13.27;;;;;;;-0.51;63.64;101589.03;5391277;32;34692;-69
2022/01/16 03:01:34;;;;;;;64.37;38.07;;;;;;;-0.46;63.08;101589.13;5393421;32;34923;-67
2022/01/16 03:04:37;;;;;;;36.70;13.77;;;;;;;-0.07;62.31;101579.72;5411828;32;35367;-67
2022/01/16 03:07:39;;;;;;;34.80;13.50;;;;;;;0.17;60.79;101570.81;5413192;32;34934;-67
2022/01/16 03:13:52;;;;;;;35.63;14.40;;;;;;;-0.62;63.90;101581.00;5412026;32;44450;-67
2022/01/16 03:16:54;;;;;;;28.97;14.00;;;;;;;-1.18;65.87;101559.72;5417146;32;34859;-67
2022/01/16 03:23:21;;;;;;;33.40;13.97;;;;;;;0.66;60.25;101561.50;5415442;32;44277;-67
2022/01/16 03:26:23;;;;;;;34.50;14.37;;;;;;;-0.97;65.44;101568.87;5414757;32;35442;-67
2022/01/16 03:29:27;;;;;;;27.10;13.67;;;;;;;-0.57;63.57;101571.66;5411042;32;34471;-67
2022/01/16 03:32:29;;;;;;;29.50;13.50;;;;;;;0.49;60.81;101564.59;5415415;32;34680;-67
2022/01/16 03:35:31;;;;;;;30.43;13.50;;;;;;;-0.06;61.73;101552.22;5412782;32;33931;-69
2022/01/16 03:38:33;;;;;;;31.43;13.50;;;;;;;-0.76;63.63;101568.56;5416926;32;34633;-69
2022/01/16 03:41:36;;;;;;;34.23;13.17;;;;;;;-0.46;63.67;101547.78;5412093;32;34426;-69
2022/01/16 03:44:39;;;;;;;35.17;14.13;;;;;;;-0.41;64.31;101549.66;5414468;32;34277;-69
2022/01/16 03:47:41;;;;;;;27.93;13.27;;;;;;;-0.36;63.18;101548.06;5414824;32;34698;-69
2022/01/16 03:50:43;;;;;;;32.00;13.47;;;;;;;-0.01;61.91;101540.25;5394112;32;34629;-67
2022/01/16 03:53:46;;;;;;;28.23;12.43;;;;;;;0.46;60.53;101540.41;5409443;32;34519;-66
2022/01/16 03:56:50;;;;;;;28.33;13.53;;;;;;;1.24;57.35;101532.37;5374923;32;44379;-68
2022/01/16 03:59:52;;;;;;;31.25;13.90;;;;;;;0.54;58.83;101544.00;5410242;32;34603;-68
2022/01/16 04:02:54;;;;;;;29.43;13.03;;;;;;;0.09;60.92;101537.03;5408895;32;32428;-67
2022/01/16 04:05:56;;;;;;;33.70;12.80;;;;;;;0.11;60.09;101537.06;5405891;32;34601;-68
2022/01/16 04:08:59;;;;;;;29.00;13.90;;;;;;;-0.49;63.41;101538.28;5408897;32;33642;-67
2022/01/16 04:12:03;;;;;;;28.67;12.33;;;;;;;-0.11;61.75;101541.75;5408397;32;34709;-67
2022/01/16 04:18:15;;;;;;;29.47;13.53;;;;;;;-0.88;64.25;101561.38;5412088;32;34771;-67
2022/01/16 04:21:22;;;;;;;27.77;12.90;;;;;;;-0.62;64.11;101550.00;5414962;32;45745;-69
2022/01/16 04:24:24;;;;;;;32.93;15.40;;;;;;;-0.68;65.12;101548.97;5387179;32;34422;-67
2022/01/16 04:27:26;;;;;;;31.13;14.50;;;;;;;-0.46;64.90;101553.81;5395692;32;35197;-67
2022/01/16 04:30:28;;;;;;;33.93;14.97;;;;;;;-0.91;65.89;101561.28;5417245;32;35978;-67
2022/01/16 04:33:30;;;;;;;31.70;13.97;;;;;;;-1.37;66.85;101557.47;5411365;32;35019;-67
2022/01/16 04:36:33;;;;;;;33.93;15.13;;;;;;;-0.18;63.28;101557.09;5416527;32;33973;-67
2022/01/16 04:39:36;;;;;;;36.00;15.27;;;;;;;-1.41;67.57;101558.22;5411801;32;34392;-67
2022/01/16 04:46:00;;;;;;;35.57;15.20;;;;;;;-1.87;69.96;101546.56;5414665;32;35021;-68
2022/01/16 04:49:03;;;;;;;37.20;15.93;;;;;;;-1.27;67.91;101535.37;5411786;32;33881;-68
2022/01/16 04:52:05;;;;;;;29.97;14.23;;;;;;;-1.25;67.38;101544.03;5416511;32;35409;-68
2022/01/16 04:55:08;;;;;;;30.23;13.97;;;;;;;-0.74;66.37;101541.94;5378972;32;34515;-68
2022/01/16 04:58:10;;;;;;;32.33;15.03;;;;;;;-1.59;68.07;101545.69;5397042;32;34945;-67
2022/01/16 05:01:12;;;;;;;33.17;14.93;;;;;;;-1.92;69.86;101537.84;5402088;32;34534;-67
2022/01/16 05:04:15;;;;;;;29.37;14.80;;;;;;;-1.89;69.86;101540.50;5410776;32;34805;-67
2022/01/16 05:07:17;;;;;;;31.30;14.73;;;;;;;-1.49;69.01;101539.06;5387831;32;44393;-69
2022/01/16 05:10:19;;;;;;;32.70;15.73;;;;;;;-1.30;67.60;101531.00;5411167;32;34173;-67
2022/01/16 05:16:38;;;;;;;35.53;14.82;;;;;;;-0.49;64.89;101530.53;5410788;32;34855;-68
2022/01/16 05:19:40;;;;;;;31.30;13.93;;;;;;;-0.21;62.65;101524.28;5415117;32;34635;-68
2022/01/16 05:22:42;;;;;;;32.90;14.83;;;;;;;-1.40;67.33;101536.75;5412072;32;34012;-68
2022/01/16 05:25:44;;;;;;;36.17;16.53;;;;;;;-1.33;66.52;101527.47;5410635;32;35187;-67
2022/01/16 05:28:46;;;;;;;39.93;15.87;;;;;;;-0.84;66.19;101527.97;5416574;32;44361;-68
2022/01/16 05:31:48;;;;;;;37.47;16.77;;;;;;;-1.61;68.10;101533.56;5407546;32;35339;-69
2022/01/16 05:34:51;;;;;;;38.00;15.47;;;;;;;-1.26;67.38;101539.72;5390142;32;35002;-69
2022/01/16 05:37:53;;;;;;;37.57;17.57;;;;;;;-0.78;65.48;101539.25;5410833;32;36382;-68
2022/01/16 05:40:55;;;;;;;38.40;18.37;;;;;;;-0.70;64.17;101536.03;5414633;32;34915;-68
2022/01/16 05:43:57;;;;;;;37.07;17.10;;;;;;;-0.60;61.99;101539.72;5401626;32;34012;-68
2022/01/16 05:47:04;;;;;;;40.37;17.37;;;;;;;-0.15;60.27;101542.50;5403375;32;34485;-68
2022/01/16 05:50:11;;;;;;;42.17;17.70;;;;;;;0.15;57.78;101549.22;5416520;32;35081;-68
2022/01/16 05:53:18;;;;;;;38.87;16.70;;;;;;;-0.04;58.21;101546.22;5395769;32;45791;-68
2022/01/16 05:56:20;;;;;;;39.13;16.93;;;;;;;-0.23;57.79;101556.97;5379451;32;34289;-68
2022/01/16 05:59:22;;;;;;;36.97;16.47;;;;;;;-0.16;58.47;101550.25;5403519;32;36548;-68
2022/01/16 06:02:27;;;;;;;38.17;16.77;;;;;;;0.19;56.86;101563.94;5408344;32;34525;-68
2022/01/16 06:05:29;;;;;;;38.83;16.53;;;;;;;0.02;57.08;101563.59;5394066;32;34814;-68
2022/01/16 06:08:32;;;;;;;41.00;17.43;;;;;;;-0.15;56.49;101568.34;5390004;32;34020;-68
2022/01/16 06:11:34;;;;;;;35.77;16.20;;;;;;;-1.15;58.67;101571.84;5410637;32;33941;-68
2022/01/16 06:14:36;;;;;;;36.40;17.10;;;;;;;-0.37;57.81;101574.72;5409653;32;34632;-68
2022/01/16 06:17:38;;;;;;;37.13;17.17;;;;;;;-0.75;58.02;101572.91;5400313;32;34542;-68
2022/01/16 06:20:41;;;;;;;40.33;19.07;;;;;;;-1.05;60.20;101570.38;5393312;32;36385;-69
2022/01/16 06:23:43;;;;;;;38.50;17.87;;;;;;;-1.65;62.12;101573.84;5403916;32;35349;-67
2022/01/16 06:26:46;;;;;;;37.37;16.37;;;;;;;-1.38;60.14;101584.09;5400693;32;44519;-68
2022/01/16 06:29:48;;;;;;;37.33;16.80;;;;;;;-0.10;56.86;101574.50;5405455;32;46056;-69
2022/01/16 06:32:50;;;;;;;41.33;17.37;;;;;;;0.06;55.59;101572.25;5402173;32;34727;-68
2022/01/16 06:35:52;;;;;;;36.33;16.30;;;;;;;0.06;55.10;101575.72;5403152;32;35170;-66
2022/01/16 06:38:55;;;;;;;36.87;15.83;;;;;;;-0.13;54.97;101584.78;5407989;32;34269;-68
2022/01/16 06:41:57;;;;;;;34.57;15.70;;;;;;;-0.33;55.27;101580.84;5402795;32;34457;-68
2022/01/16 06:45:15;;;;;;;35.33;16.30;;;;;;;-0.42;55.69;101590.94;5410086;32;34714;-68
2022/01/16 06:48:17;;;;;;;32.20;14.53;;;;;;;-0.72;56.93;101591.03;5416358;32;44645;-66
2022/01/16 06:51:20;;;;;;;31.03;14.73;;;;;;;-1.45;59.11;101597.62;5390958;32;34479;-66
2022/01/16 06:54:22;;;;;;;29.33;13.67;;;;;;;-1.06;57.70;101592.72;5411203;32;34090;-67
2022/01/16 06:57:24;;;;;;;27.43;13.07;;;;;;;-0.89;56.80;101585.44;5374874;32;35608;-67
2022/01/16 07:00:27;;;;;;;32.53;13.63;;;;;;;-1.74;59.30;101589.94;5402278;32;34601;-67
2022/01/16 07:03:29;;;;;;;34.97;13.97;;;;;;;-0.76;56.61;101573.75;5407113;32;35735;-67
2022/01/16 07:06:31;;;;;;;33.00;13.20;;;;;;;-1.84;59.34;101582.75;5396138;32;33963;-69
2022/01/16 07:09:33;;;;;;;28.83;12.83;;;;;;;-1.88;60.85;101580.00;5416534;32;33665;-66
2022/01/16 07:12:35;;;;;;;25.40;11.17;;;;;;;-1.18;58.52;101582.06;5410160;32;33924;-67
2022/01/16 07:15:37;;;;;;;24.10;11.87;;;;;;;-0.69;56.60;101578.22;5415163;32;36581;-68
2022/01/16 07:18:40;;;;;;;30.23;12.70;;;;;;;-1.44;57.67;101584.78;5411196;32;35686;-68
2022/01/16 07:21:43;;;;;;;32.20;12.83;;;;;;;-2.37;61.32;101587.09;5410261;32;35004;-68
2022/01/16 07:24:45;;;;;;;30.80;12.50;;;;;;;-2.49;61.31;101613.31;5412540;32;34768;-67
2022/01/16 07:27:49;;;;;;;31.00;13.18;;;;;;;-2.17;61.11;101608.34;5406716;32;45008;-67
2022/01/16 07:30:51;;;;;;;29.43;13.17;;;;;;;-2.84;62.96;101624.06;5409270;32;34799;-68
2022/01/16 07:33:55;;;;;;;28.03;11.20;;;;;;;-2.62;62.26;101608.56;5400131;32;34359;-68
2022/01/16 07:36:58;;;;;;;28.33;12.67;;;;;;;-2.43;62.10;101609.19;5409926;32;33930;-67
2022/01/16 07:40:00;;;;;;;27.63;11.20;;;;;;;-1.60;59.59;101603.22;5399899;32;35150;-67
2022/01/16 07:43:02;;;;;;;30.80;12.17;;;;;;;-2.19;61.13;101607.38;5415814;32;34138;-67
2022/01/16 07:46:05;;;;;;;28.43;12.50;;;;;;;-1.62;59.05;101607.44;5410064;32;34398;-67
2022/01/16 07:49:07;;;;;;;29.70;13.57;;;;;;;-2.08;60.10;101616.34;5403448;32;34596;-67
2022/01/16 07:52:09;;;;;;;28.37;11.77;;;;;;;-2.79;62.65;101622.53;5418453;32;35069;-67
2022/01/16 07:55:11;;;;;;;27.00;12.07;;;;;;;-1.99;60.52;101610.63;5369965;32;34449;-68
2022/01/16 07:58:13;;;;;;;29.13;11.83;;;;;;;-2.23;60.35;101619.31;5388685;32;35078;-67
2022/01/16 08:01:16;;;;;;;28.40;12.47;;;;;;;-1.91;60.26;101610.03;5407612;32;34406;-67
2022/01/16 08:04:18;;;;;;;28.10;12.50;;;;;;;-2.01;60.57;101605.41;5415678;32;44490;-68
2022/01/16 08:07:20;;;;;;;30.07;12.37;;;;;;;-1.69;59.37;101590.06;5415392;32;34854;-67
2022/01/16 08:10:22;;;;;;;31.30;13.00;;;;;;;-2.36;61.44;101600.84;5412033;32;34490;-67
2022/01/16 08:13:25;;;;;;;27.07;12.77;;;;;;;-2.09;61.54;101593.13;5392140;32;34905;-68
2022/01/16 08:16:27;;;;;;;30.17;12.33;;;;;;;-1.57;60.09;101584.38;5412731;32;35213;-68
2022/01/16 08:19:30;;;;;;;28.57;12.63;;;;;;;-0.99;58.71;101589.47;5390631;32;34359;-67
2022/01/16 08:22:32;;;;;;;27.93;12.77;;;;;;;-1.13;58.82;101594.25;5409152;32;34699;-68
2022/01/16 08:25:34;;;;;;;30.90;12.73;;;;;;;-1.69;60.44;101592.63;5400242;32;34764;-67
2022/01/16 08:28:37;;;;;;;29.90;12.97;;;;;;;-1.46;60.75;101591.59;5413747;32;34732;-68
2022/01/16 08:31:39;;;;;;;29.20;12.50;;;;;;;-1.60;60.44;101589.47;5394881;32;34900;-68
2022/01/16 08:34:41;;;;;;;32.07;13.93;;;;;;;-0.45;57.61;101584.00;5416605;32;34719;-68
2022/01/16 08:37:43;;;;;;;33.37;12.63;;;;;;;-1.90;60.63;101582.56;5408634;32;34644;-67
2022/01/16 08:40:45;;;;;;;30.17;12.73;;;;;;;-1.56;60.09;101573.25;5400345;32;34028;-68
2022/01/16 08:43:47;;;;;;;30.63;13.60;;;;;;;-0.42;57.47;101547.03;5411886;32;46722;-67
2022/01/16 08:46:51;;;;;;;30.90;13.63;;;;;;;-1.28;59.24;101547.41;5400753;32;34816;-67
2022/01/16 08:49:53;;;;;;;29.63;12.83;;;;;;;-2.32;63.51;101554.66;5415917;32;34130;-67
2022/01/16 08:52:55;;;;;;;31.87;13.80;;;;;;;-2.22;62.82;101553.22;5411947;32;34152;-67
2022/01/16 08:55:59;;;;;;;31.30;13.47;;;;;;;-2.20;63.24;101548.97;5392453;32;34909;-67
2022/01/16 08:59:01;;;;;;;30.48;12.75;;;;;;;-1.41;61.27;101547.91;5387078;32;141807;-67
2022/01/16 09:02:03;;;;;;;30.80;13.77;;;;;;;-2.19;62.68;101540.41;5398676;32;34847;-67
2022/01/16 09:05:06;;;;;;;28.03;12.87;;;;;;;-1.96;64.12;101534.28;5412918;32;34850;-68
2022/01/16 09:08:08;;;;;;;31.33;13.73;;;;;;;-0.42;59.41;101527.25;5414091;32;35027;-67
2022/01/16 09:11:11;;;;;;;31.03;13.90;;;;;;;-0.21;58.36;101520.81;5401574;32;34647;-67
2022/01/16 09:14:15;;;;;;;29.23;14.10;;;;;;;-1.68;62.74;101522.19;5387755;32;34786;-67
2022/01/16 09:17:17;;;;;;;35.10;13.60;;;;;;;-1.57;62.75;101520.81;5401640;32;44306;-67
2022/01/16 09:20:19;;;;;;;34.90;14.27;;;;;;;-0.72;61.19;101509.28;5411654;32;35229;-67
2022/01/16 09:23:22;;;;;;;36.50;13.57;;;;;;;0.35;57.30;101514.31;5416107;32;34756;-67
2022/01/16 09:26:25;;;;;;;31.10;13.67;;;;;;;0.04;57.76;101519.66;5399879;32;34064;-69
2022/01/16 09:29:28;;;;;;;37.72;16.17;;;;;;;-0.63;59.69;101516.41;5382436;32;34761;-67
2022/01/16 09:32:31;;;;;;;31.63;13.90;;;;;;;-0.91;60.42;101526.03;5402736;32;34991;-68
2022/01/16 09:35:33;;;;;;;34.10;15.13;;;;;;;-0.59;59.60;101518.22;5411370;32;34783;-67
2022/01/16 09:38:36;;;;;;;36.50;15.67;;;;;;;0.32;57.06;101503.88;5417093;32;34829;-68
2022/01/16 09:41:42;;;;;;;35.17;15.13;;;;;;;-0.19;58.67;101507.13;5399658;32;35709;-67
2022/01/16 09:44:45;;;;;;;34.58;14.95;;;;;;;-0.55;60.34;101497.66;5397232;32;34454;-68
2022/01/16 09:47:48;;;;;;;32.10;14.50;;;;;;;0.36;56.92;101500.53;5412073;32;44470;-68
2022/01/16 09:50:51;;;;;;;33.33;15.20;;;;;;;0.59;57.39;101492.38;5411346;32;35225;-67
2022/01/16 09:53:53;;;;;;;28.83;14.63;;;;;;;-0.16;58.26;101491.69;5395110;32;34403;-67
2022/01/16 09:56:55;;;;;;;35.40;16.27;;;;;;;0.74;56.80;101477.13;5378188;32;34804;-67
2022/01/16 09:59:58;;;;;;;33.83;15.80;;;;;;;1.00;56.37;101475.88;5408116;32;35194;-67
2022/01/16 10:03:00;;;;;;;31.77;15.60;;;;;;;0.67;56.54;101480.44;5404729;32;33975;-67
2022/01/16 10:06:15;;;;;;;33.00;15.33;;;;;;;0.86;56.93;101472.16;5416004;32;34441;-68
2022/01/16 10:09:17;;;;;;;36.67;16.07;;;;;;;0.63;57.19;101463.97;5398193;32;43300;-68
2022/01/16 10:12:26;;;;;;;34.37;15.73;;;;;;;0.97;56.27;101456.84;5409924;32;34796;-67
2022/01/16 10:15:28;;;;;;;38.23;16.83;;;;;;;1.72;54.63;101452.78;5395681;32;34704;-69
2022/01/16 10:18:36;;;;;;;40.63;16.27;;;;;;;1.71;54.04;101449.34;5402463;32;35105;-69
2022/01/16 10:21:40;;;;;;;31.17;14.80;;;;;;;0.47;58.04;101457.66;5401678;32;34480;-68
2022/01/16 10:24:42;;;;;;;35.10;15.77;;;;;;;1.95;54.46;101440.16;5381420;32;34865;-66
2022/01/16 10:27:46;;;;;;;35.20;17.13;;;;;;;1.68;54.78;101440.66;5410632;32;34627;-68
2022/01/16 10:30:53;;;;;;;37.33;17.87;;;;;;;2.31;53.18;101434.53;5416619;32;44984;-68
2022/01/16 10:33:56;;;;;;;35.33;15.30;;;;;;;2.06;53.42;101436.84;5411324;32;35511;-68
2022/01/16 10:36:59;;;;;;;31.70;16.17;;;;;;;0.94;57.18;101443.81;5417062;32;33923;-68
2022/01/16 10:40:07;;;;;;;32.42;15.50;;;;;;;0.81;56.68;101440.16;5383900;32;33992;-68
2022/01/16 10:43:15;;;;;;;34.73;15.20;;;;;;;2.43;53.94;101426.87;5400036;32;34789;-67
2022/01/16 10:46:25;;;;;;;33.80;16.07;;;;;;;2.56;53.36;101400.19;5403382;32;44625;-67
2022/01/16 10:49:33;;;;;;;34.10;16.77;;;;;;;3.07;52.28;101404.13;5403391;32;33863;-67
2022/01/16 10:52:51;;;;;;;32.33;16.27;;;;;;;3.10;51.56;101404.16;5401809;32;34003;-68
2022/01/16 10:55:57;;;;;;;33.93;16.97;;;;;;;4.52;47.91;101396.16;5386283;32;48017;-68
2022/01/16 10:59:00;;;;;;;35.27;16.63;;;;;;;4.32;48.07;101393.50;5393560;32;35529;-68
2022/01/16 11:02:07;;;;;;;33.13;16.43;;;;;;;5.15;46.50;101389.22;5395542;32;34099;-68
2022/01/16 11:05:12;;;;;;;36.87;17.57;;;;;;;3.93;46.90;101399.41;5379609;32;34147;-67
2022/01/16 11:08:16;;;;;;;33.17;15.93;;;;;;;4.29;47.70;101396.97;5402623;32;34454;-68
2022/01/16 11:11:20;;;;;;;32.10;15.90;;;;;;;5.48;45.04;101382.25;5397428;32;44439;-68
2022/01/16 11:14:22;;;;;;;32.30;16.37;;;;;;;6.22;43.88;101379.34;5392098;32;32521;-68
2022/01/16 11:17:24;;;;;;;37.47;17.70;;;;;;;6.70;42.12;101377.31;5407573;32;35948;-68
2022/01/16 11:20:31;;;;;;;32.87;16.77;;;;;;;5.43;44.03;101374.41;5415867;32;34149;-67
2022/01/16 11:23:47;;;;;;;34.23;18.60;;;;;;;5.82;43.84;101373.41;5416393;32;34133;-68
2022/01/16 11:26:51;;;;;;;39.40;18.40;;;;;;;6.05;42.50;101377.69;5408235;32;44670;-68
2022/01/16 11:29:54;;;;;;;37.90;18.57;;;;;;;5.63;43.56;101376.97;5385447;32;34522;-67
2022/01/16 11:32:57;;;;;;;35.90;19.03;;;;;;;5.30;44.51;101354.47;5398440;32;34633;-68
2022/01/16 11:36:07;;;;;;;33.83;18.23;;;;;;;5.00;45.92;101365.78;5417352;32;34063;-69
2022/01/16 11:39:12;;;;;;;40.77;19.97;;;;;;;3.68;49.46;101368.13;5414495;32;34515;-70
2022/01/16 11:42:21;;;;;;;41.30;20.30;;;;;;;3.84;49.57;101357.78;5407994;32;33908;-68
2022/01/16 11:45:23;;;;;;;44.53;21.23;;;;;;;4.20;49.59;101346.63;5418160;32;44482;-67
2022/01/16 11:48:39;;;;;;;45.00;22.30;;;;;;;3.93;50.36;101350.00;5393231;32;34325;-67
2022/01/16 11:52:07;;;;;;;42.15;21.02;;;;;;;5.05;46.54;101335.37;5413488;32;34020;-68
2022/01/16 11:55:11;;;;;;;41.83;21.83;;;;;;;4.69;48.10;101341.47;5399086;32;34782;-67
2022/01/16 11:58:13;;;;;;;41.50;20.60;;;;;;;4.54;48.99;101331.94;5384545;32;34685;-67
2022/01/16 12:01:41;;;;;;;39.73;19.37;;;;;;;4.14;49.38;101326.66;5395802;32;34130;-68
2022/01/16 12:04:44;;;;;;;42.17;20.53;;;;;;;6.92;42.50;101314.41;5399599;32;35272;-67
2022/01/16 12:07:48;;;;;;;44.73;20.37;;;;;;;5.26;47.29;101324.03;5414156;32;46106;-68
2022/01/16 12:10:54;;;;;;;40.17;20.43;;;;;;;5.87;46.21;101311.66;5398054;32;33884;-68
2022/01/16 12:13:57;;;;;;;41.67;19.33;;;;;;;8.15;40.62;101294.59;5411710;32;33955;-68
2022/01/16 12:17:44;;;;;;;44.20;21.35;;;;;;;7.79;40.43;101289.88;5417806;32;34688;-68
2022/01/16 12:20:47;;;;;;;34.90;18.77;;;;;;;6.64;42.48;101295.50;5394653;32;35181;-68
2022/01/16 12:23:49;;;;;;;40.47;18.73;;;;;;;6.96;42.79;101292.59;5392316;32;36164;-68
2022/01/16 12:27:27;;;;;;;35.87;18.40;;;;;;;7.70;41.09;101279.53;5378069;32;35545;-69
2022/01/16 12:30:48;;;;;;;38.07;18.33;;;;;;;7.76;40.37;101280.31;5390691;32;34067;-69
2022/01/16 12:33:52;;;;;;;35.27;18.17;;;;;;;7.99;39.83;101277.41;5416210;32;44572;-69
2022/01/16 12:36:56;;;;;;;35.50;17.40;;;;;;;6.18;43.54;101278.47;5399509;32;36239;-68
2022/01/16 12:39:58;;;;;;;36.50;18.23;;;;;;;4.18;49.33;101291.97;5398663;32;33917;-68
2022/01/16 12:43:01;;;;;;;40.60;20.07;;;;;;;4.97;47.18;101287.66;5409138;32;34704;-68
2022/01/16 12:46:04;;;;;;;35.63;17.98;;;;;;;4.45;47.96;101290.28;5413142;32;34036;-68
2022/01/16 12:49:12;;;;;;;39.22;17.90;;;;;;;5.02;46.73;101283.25;5417709;32;35109;-68
2022/01/16 12:52:15;;;;;;;37.30;17.60;;;;;;;5.37;45.93;101288.41;5411798;32;34848;-68
2022/01/16 12:55:17;;;;;;;37.73;18.77;;;;;;;4.94;47.04;101285.03;5396781;32;44341;-67
2022/01/16 12:58:21;;;;;;;36.50;18.50;;;;;;;5.24;46.98;101289.31;5386247;32;34227;-69
2022/01/16 13:01:24;;;;;;;34.80;16.73;;;;;;;4.32;49.01;101277.25;5390333;32;34556;-67
2022/01/16 13:04:41;;;;;;;38.43;17.67;;;;;;;4.54;47.74;101279.84;5414667;32;35604;-67
2022/01/16 13:08:03;;;;;;;34.37;15.93;;;;;;;4.74;47.97;101283.31;5411984;32;34320;-66
2022/01/16 13:11:15;;;;;;;32.38;16.45;;;;;;;5.81;44.94;101267.34;5390059;32;34083;-68
2022/01/16 13:14:25;;;;;;;37.27;16.87;;;;;;;5.38;46.13;101264.06;5412629;32;46720;-67
2022/01/16 13:17:29;;;;;;;35.20;18.37;;;;;;;5.89;44.64;101249.88;5397650;32;34763;-67
2022/01/16 13:20:32;;;;;;;39.13;19.73;;;;;;;5.76;44.80;101256.06;5417471;32;34957;-68
2022/01/16 13:23:34;;;;;;;41.50;20.17;;;;;;;5.94;44.55;101248.16;5411909;32;33904;-68
2022/01/16 13:26:36;;;;;;;37.97;18.17;;;;;;;5.86;44.88;101255.16;5402381;32;34668;-67
2022/01/16 13:29:40;;;;;;;41.60;19.57;;;;;;;5.16;46.39;101261.53;5411060;32;34730;-68
2022/01/16 13:32:43;;;;;;;42.87;20.23;;;;;;;5.56;45.30;101265.72;5400260;32;35685;-67
2022/01/16 13:35:45;;;;;;;39.50;19.00;;;;;;;4.60;48.23;101264.22;5405003;32;34882;-68
2022/01/16 13:38:47;;;;;;;44.20;20.57;;;;;;;5.41;46.18;101251.03;5402904;32;44382;-68
2022/01/16 13:42:17;;;;;;;44.50;20.63;;;;;;;4.26;48.52;101251.22;5410838;32;34259;-68
2022/01/16 13:45:42;;;;;;;42.57;19.80;;;;;;;4.59;48.29;101242.53;5410527;32;46704;-68
2022/01/16 13:48:47;;;;;;;45.67;20.53;;;;;;;5.02;47.10;101237.22;5414089;32;34721;-68
2022/01/16 13:52:00;;;;;;;44.97;20.50;;;;;;;4.95;47.25;101235.50;5400138;32;44293;-68
2022/01/16 13:55:09;;;;;;;43.70;20.97;;;;;;;4.61;47.94;101242.53;5379932;32;34226;-68
2022/01/16 13:58:14;;;;;;;43.00;21.83;;;;;;;3.24;50.82;101250.97;5391856;32;34814;-68
2022/01/16 14:01:19;;;;;;;44.03;20.27;;;;;;;4.59;48.67;101232.12;5403506;32;34443;-68
2022/01/16 14:04:23;;;;;;;45.90;20.80;;;;;;;4.18;49.50;101239.94;5412210;32;34416;-68
2022/01/16 14:07:25;;;;;;;42.47;20.05;;;;;;;5.06;47.06;101222.47;5399672;32;35319;-68
2022/01/16 14:10:38;;;;;;;47.67;21.13;;;;;;;5.98;44.44;101215.94;5410244;32;34052;-68
2022/01/16 14:14:09;;;;;;;45.90;20.47;;;;;;;6.05;44.35;101219.34;5417445;32;36019;-68
2022/01/16 14:20:25;;;;;;;43.07;19.80;;;;;;;5.51;45.56;101216.19;5414796;32;34626;-67
2022/01/16 14:23:27;;;;;;;44.80;21.67;;;;;;;4.82;47.45;101219.03;5413920;32;35479;-68
2022/01/16 14:26:30;;;;;;;41.00;20.03;;;;;;;4.72;47.93;101212.16;5406300;32;33754;-68
2022/01/16 14:29:36;;;;;;;42.50;19.35;;;;;;;4.59;48.36;101218.25;5403325;32;33978;-67
2022/01/16 14:32:38;;;;;;;45.20;20.87;;;;;;;4.76;47.70;101203.44;5413368;32;33898;-67
2022/01/16 14:35:40;;;;;;;46.33;20.20;;;;;;;3.33;51.38;101211.16;5416622;32;34111;-68
2022/01/16 14:38:42;;;;;;;44.07;20.90;;;;;;;4.10;49.40;101184.44;5391264;32;35226;-66
2022/01/16 14:41:48;;;;;;;45.63;20.60;;;;;;;3.99;50.01;101206.97;5408091;32;34500;-68
2022/01/16 14:44:51;;;;;;;49.90;20.73;;;;;;;3.75;50.78;101190.47;5392937;32;46447;-69
2022/01/16 14:47:53;;;;;;;46.83;21.07;;;;;;;3.40;51.67;101210.31;5411199;32;34680;-68
2022/01/16 14:50:56;;;;;;;45.37;21.00;;;;;;;3.40;52.27;101202.50;5418223;32;36558;-68
2022/01/16 14:53:58;;;;;;;52.73;21.90;;;;;;;3.13;53.23;101195.50;5411687;32;35749;-68